sensor_id;sensor_type;location;lat;lon;timestamp;P1;durP1;ratioP1;P2;durP2;ratioP2
4821;SDS011;2425;47.794;13.068;2023-02-15T00:00:44;8.60;;;7.73;;
4821;SDS011;2425;47.794;13.068;2023-02-15T00:03:11;7.33;;;6.63;;
4821;SDS011;2425;47.794;13.068;2023-02-15T00:05:39;8.60;;;6.80;;
4821;SDS011;2425;47.794;13.068;2023-02-15T00:08:05;7.93;;;7.23;;
4821;SDS011;2425;47.794;13.068;2023-02-15T00:10:32;11.20;;;7.20;;
4821;SDS011;2425;47.794;13.068;2023-02-15T00:12:59;7.90;;;7.20;;
4821;SDS011;2425;47.794;13.068;2023-02-15T00:15:26;7.70;;;7.00;;
4821;SDS011;2425;47.794;13.068;2023-02-15T00:17:53;9.20;;;7.40;;
4821;SDS011;2425;47.794;13.068;2023-02-15T00:20:19;6.50;;;6.00;;
4821;SDS011;2425;47.794;13.068;2023-02-15T00:22:48;7.70;;;7.00;;
4821;SDS011;2425;47.794;13.068;2023-02-15T00:25:15;8.27;;;7.30;;
4821;SDS011;2425;47.794;13.068;2023-02-15T00:27:41;7.77;;;7.00;;
4821;SDS011;2425;47.794;13.068;2023-02-15T00:30:08;7.67;;;6.97;;
4821;SDS011;2425;47.794;13.068;2023-02-15T00:32:35;7.53;;;6.83;;
4821;SDS011;2425;47.794;13.068;2023-02-15T00:35:02;7.07;;;6.37;;
4821;SDS011;2425;47.794;13.068;2023-02-15T00:37:29;8.03;;;7.20;;
4821;SDS011;2425;47.794;13.068;2023-02-15T00:39:58;7.17;;;6.57;;
4821;SDS011;2425;47.794;13.068;2023-02-15T00:42:24;8.50;;;6.47;;
4821;SDS011;2425;47.794;13.068;2023-02-15T00:44:51;8.70;;;7.10;;
4821;SDS011;2425;47.794;13.068;2023-02-15T00:47:18;6.93;;;6.33;;
4821;SDS011;2425;47.794;13.068;2023-02-15T00:49:44;7.27;;;6.57;;
4821;SDS011;2425;47.794;13.068;2023-02-15T00:52:23;8.00;;;7.17;;
4821;SDS011;2425;47.794;13.068;2023-02-15T00:54:50;6.67;;;6.07;;
4821;SDS011;2425;47.794;13.068;2023-02-15T00:57:18;6.80;;;5.93;;
4821;SDS011;2425;47.794;13.068;2023-02-15T00:59:45;6.93;;;6.23;;
4821;SDS011;2425;47.794;13.068;2023-02-15T01:02:11;7.40;;;6.70;;
4821;SDS011;2425;47.794;13.068;2023-02-15T01:04:38;7.23;;;6.33;;
4821;SDS011;2425;47.794;13.068;2023-02-15T01:07:05;7.00;;;6.40;;
4821;SDS011;2425;47.794;13.068;2023-02-15T01:09:32;6.80;;;6.20;;
4821;SDS011;2425;47.794;13.068;2023-02-15T01:11:59;7.10;;;6.50;;
4821;SDS011;2425;47.794;13.068;2023-02-15T01:14:28;6.73;;;6.00;;
4821;SDS011;2425;47.794;13.068;2023-02-15T01:16:55;6.90;;;6.20;;
4821;SDS011;2425;47.794;13.068;2023-02-15T01:19:21;6.23;;;5.70;;
4821;SDS011;2425;47.794;13.068;2023-02-15T01:21:48;6.27;;;5.67;;
4821;SDS011;2425;47.794;13.068;2023-02-15T01:24:15;6.43;;;5.83;;
4821;SDS011;2425;47.794;13.068;2023-02-15T01:26:42;7.73;;;5.97;;
4821;SDS011;2425;47.794;13.068;2023-02-15T01:29:09;6.60;;;5.90;;
4821;SDS011;2425;47.794;13.068;2023-02-15T01:31:37;5.53;;;5.07;;
4821;SDS011;2425;47.794;13.068;2023-02-15T01:34:04;6.33;;;5.83;;
4821;SDS011;2425;47.794;13.068;2023-02-15T01:36:32;6.10;;;5.60;;
4821;SDS011;2425;47.794;13.068;2023-02-15T01:39:00;5.90;;;5.50;;
4821;SDS011;2425;47.794;13.068;2023-02-15T01:41:27;6.20;;;5.63;;
4821;SDS011;2425;47.794;13.068;2023-02-15T01:43:55;5.30;;;4.90;;
4821;SDS011;2425;47.794;13.068;2023-02-15T01:46:24;6.70;;;5.93;;
4821;SDS011;2425;47.794;13.068;2023-02-15T01:48:56;6.40;;;5.80;;
4821;SDS011;2425;47.794;13.068;2023-02-15T01:51:26;6.33;;;5.73;;
4821;SDS011;2425;47.794;13.068;2023-02-15T01:53:57;6.50;;;5.70;;
4821;SDS011;2425;47.794;13.068;2023-02-15T01:56:29;5.60;;;5.10;;
4821;SDS011;2425;47.794;13.068;2023-02-15T01:58:59;6.23;;;5.73;;
4821;SDS011;2425;47.794;13.068;2023-02-15T02:01:27;6.23;;;5.73;;
4821;SDS011;2425;47.794;13.068;2023-02-15T02:03:58;6.20;;;5.33;;
4821;SDS011;2425;47.794;13.068;2023-02-15T02:06:28;5.67;;;5.03;;
4821;SDS011;2425;47.794;13.068;2023-02-15T02:08:55;6.67;;;6.00;;
4821;SDS011;2425;47.794;13.068;2023-02-15T02:11:23;6.20;;;5.70;;
4821;SDS011;2425;47.794;13.068;2023-02-15T02:13:50;6.00;;;5.50;;
4821;SDS011;2425;47.794;13.068;2023-02-15T02:16:20;5.70;;;5.30;;
4821;SDS011;2425;47.794;13.068;2023-02-15T02:18:51;5.87;;;5.37;;
4821;SDS011;2425;47.794;13.068;2023-02-15T02:21:42;5.27;;;4.87;;
4821;SDS011;2425;47.794;13.068;2023-02-15T02:24:43;5.53;;;4.80;;
4821;SDS011;2425;47.794;13.068;2023-02-15T02:27:29;5.23;;;4.77;;
4821;SDS011;2425;47.794;13.068;2023-02-15T02:30:18;6.93;;;5.50;;
4821;SDS011;2425;47.794;13.068;2023-02-15T02:33:11;5.80;;;5.30;;
4821;SDS011;2425;47.794;13.068;2023-02-15T02:35:49;6.27;;;5.30;;
4821;SDS011;2425;47.794;13.068;2023-02-15T02:38:23;5.30;;;4.90;;
4821;SDS011;2425;47.794;13.068;2023-02-15T02:40:55;5.40;;;5.00;;
4821;SDS011;2425;47.794;13.068;2023-02-15T02:43:29;5.60;;;5.20;;
4821;SDS011;2425;47.794;13.068;2023-02-15T02:46:01;6.13;;;5.50;;
4821;SDS011;2425;47.794;13.068;2023-02-15T02:48:31;5.60;;;5.10;;
4821;SDS011;2425;47.794;13.068;2023-02-15T02:50:59;5.77;;;5.20;;
4821;SDS011;2425;47.794;13.068;2023-02-15T02:53:26;5.63;;;4.70;;
4821;SDS011;2425;47.794;13.068;2023-02-15T02:55:55;5.93;;;5.40;;
4821;SDS011;2425;47.794;13.068;2023-02-15T02:58:24;5.73;;;5.23;;
4821;SDS011;2425;47.794;13.068;2023-02-15T03:00:54;5.60;;;5.10;;
4821;SDS011;2425;47.794;13.068;2023-02-15T03:03:24;6.20;;;5.70;;
4821;SDS011;2425;47.794;13.068;2023-02-15T03:05:55;5.27;;;4.90;;
4821;SDS011;2425;47.794;13.068;2023-02-15T03:08:24;4.93;;;4.57;;
4821;SDS011;2425;47.794;13.068;2023-02-15T03:10:55;5.80;;;5.30;;
4821;SDS011;2425;47.794;13.068;2023-02-15T03:13:23;5.40;;;4.97;;
4821;SDS011;2425;47.794;13.068;2023-02-15T03:15:50;4.90;;;4.50;;
4821;SDS011;2425;47.794;13.068;2023-02-15T03:18:35;4.80;;;4.50;;
4821;SDS011;2425;47.794;13.068;2023-02-15T03:21:05;4.73;;;4.43;;
4821;SDS011;2425;47.794;13.068;2023-02-15T03:23:33;4.50;;;4.20;;
4821;SDS011;2425;47.794;13.068;2023-02-15T03:26:02;4.20;;;3.97;;
4821;SDS011;2425;47.794;13.068;2023-02-15T03:28:31;4.40;;;4.10;;
4821;SDS011;2425;47.794;13.068;2023-02-15T03:31:04;4.77;;;4.47;;
4821;SDS011;2425;47.794;13.068;2023-02-15T03:33:32;5.60;;;4.30;;
4821;SDS011;2425;47.794;13.068;2023-02-15T03:36:02;5.10;;;4.70;;
4821;SDS011;2425;47.794;13.068;2023-02-15T03:38:35;4.67;;;4.33;;
4821;SDS011;2425;47.794;13.068;2023-02-15T03:41:04;5.40;;;5.00;;
4821;SDS011;2425;47.794;13.068;2023-02-15T03:43:37;5.47;;;4.97;;
4821;SDS011;2425;47.794;13.068;2023-02-15T03:46:11;5.10;;;4.70;;
4821;SDS011;2425;47.794;13.068;2023-02-15T03:48:40;4.50;;;4.20;;
4821;SDS011;2425;47.794;13.068;2023-02-15T03:51:14;5.30;;;4.90;;
4821;SDS011;2425;47.794;13.068;2023-02-15T03:54:04;5.30;;;4.80;;
4821;SDS011;2425;47.794;13.068;2023-02-15T03:56:33;4.50;;;4.20;;
4821;SDS011;2425;47.794;13.068;2023-02-15T03:59:01;4.50;;;4.20;;
4821;SDS011;2425;47.794;13.068;2023-02-15T04:01:47;4.90;;;4.50;;
4821;SDS011;2425;47.794;13.068;2023-02-15T04:04:24;4.60;;;4.30;;
4821;SDS011;2425;47.794;13.068;2023-02-15T04:06:55;4.60;;;4.30;;
4821;SDS011;2425;47.794;13.068;2023-02-15T04:09:21;4.27;;;3.97;;
4821;SDS011;2425;47.794;13.068;2023-02-15T04:12:05;5.00;;;4.60;;
4821;SDS011;2425;47.794;13.068;2023-02-15T04:14:32;4.07;;;3.70;;
4821;SDS011;2425;47.794;13.068;2023-02-15T04:17:17;4.23;;;3.93;;
4821;SDS011;2425;47.794;13.068;2023-02-15T04:19:44;4.80;;;4.30;;
4821;SDS011;2425;47.794;13.068;2023-02-15T04:22:29;4.60;;;4.30;;
4821;SDS011;2425;47.794;13.068;2023-02-15T04:25:13;4.50;;;4.20;;
4821;SDS011;2425;47.794;13.068;2023-02-15T04:27:41;4.93;;;4.53;;
4821;SDS011;2425;47.794;13.068;2023-02-15T04:30:09;5.13;;;4.73;;
4821;SDS011;2425;47.794;13.068;2023-02-15T04:32:37;4.17;;;3.93;;
4821;SDS011;2425;47.794;13.068;2023-02-15T04:35:05;4.60;;;4.30;;
4821;SDS011;2425;47.794;13.068;2023-02-15T04:37:33;4.37;;;4.07;;
4821;SDS011;2425;47.794;13.068;2023-02-15T04:40:00;4.33;;;4.03;;
4821;SDS011;2425;47.794;13.068;2023-02-15T04:42:28;5.00;;;4.60;;
4821;SDS011;2425;47.794;13.068;2023-02-15T04:44:55;4.30;;;4.00;;
4821;SDS011;2425;47.794;13.068;2023-02-15T04:47:22;4.10;;;3.80;;
4821;SDS011;2425;47.794;13.068;2023-02-15T04:49:49;4.23;;;3.93;;
4821;SDS011;2425;47.794;13.068;2023-02-15T04:52:15;4.40;;;4.10;;
4821;SDS011;2425;47.794;13.068;2023-02-15T04:54:44;4.20;;;3.90;;
4821;SDS011;2425;47.794;13.068;2023-02-15T04:57:11;4.20;;;3.90;;
4821;SDS011;2425;47.794;13.068;2023-02-15T04:59:38;4.50;;;4.20;;
4821;SDS011;2425;47.794;13.068;2023-02-15T05:02:04;4.77;;;4.37;;
4821;SDS011;2425;47.794;13.068;2023-02-15T05:04:31;4.10;;;3.80;;
4821;SDS011;2425;47.794;13.068;2023-02-15T05:06:58;5.10;;;4.73;;
4821;SDS011;2425;47.794;13.068;2023-02-15T05:09:24;4.70;;;4.40;;
4821;SDS011;2425;47.794;13.068;2023-02-15T05:11:53;4.03;;;3.83;;
4821;SDS011;2425;47.794;13.068;2023-02-15T05:14:19;4.00;;;3.80;;
4821;SDS011;2425;47.794;13.068;2023-02-15T05:16:46;4.43;;;4.13;;
4821;SDS011;2425;47.794;13.068;2023-02-15T05:19:13;4.93;;;4.60;;
4821;SDS011;2425;47.794;13.068;2023-02-15T05:21:40;4.30;;;4.00;;
4821;SDS011;2425;47.794;13.068;2023-02-15T05:24:07;4.70;;;3.93;;
4821;SDS011;2425;47.794;13.068;2023-02-15T05:26:47;4.40;;;4.10;;
4821;SDS011;2425;47.794;13.068;2023-02-15T05:29:33;4.20;;;3.90;;
4821;SDS011;2425;47.794;13.068;2023-02-15T05:31:59;4.23;;;4.00;;
4821;SDS011;2425;47.794;13.068;2023-02-15T05:34:27;4.50;;;4.20;;
4821;SDS011;2425;47.794;13.068;2023-02-15T05:36:54;4.57;;;4.17;;
4821;SDS011;2425;47.794;13.068;2023-02-15T05:39:21;4.23;;;3.93;;
4821;SDS011;2425;47.794;13.068;2023-02-15T05:41:48;4.00;;;3.73;;
4821;SDS011;2425;47.794;13.068;2023-02-15T05:44:14;4.40;;;4.10;;
4821;SDS011;2425;47.794;13.068;2023-02-15T05:46:43;4.10;;;3.80;;
4821;SDS011;2425;47.794;13.068;2023-02-15T05:49:09;4.17;;;3.97;;
4821;SDS011;2425;47.794;13.068;2023-02-15T05:51:36;13.23;;;3.30;;
4821;SDS011;2425;47.794;13.068;2023-02-15T05:54:03;3.97;;;3.70;;
4821;SDS011;2425;47.794;13.068;2023-02-15T05:56:30;4.07;;;3.77;;
4821;SDS011;2425;47.794;13.068;2023-02-15T05:58:56;4.00;;;3.80;;
4821;SDS011;2425;47.794;13.068;2023-02-15T06:01:23;3.77;;;3.50;;
4821;SDS011;2425;47.794;13.068;2023-02-15T06:03:51;3.83;;;3.53;;
4821;SDS011;2425;47.794;13.068;2023-02-15T06:06:19;3.40;;;3.20;;
4821;SDS011;2425;47.794;13.068;2023-02-15T06:08:46;3.57;;;3.37;;
4821;SDS011;2425;47.794;13.068;2023-02-15T06:11:12;3.70;;;3.50;;
4821;SDS011;2425;47.794;13.068;2023-02-15T06:13:39;3.63;;;3.43;;
4821;SDS011;2425;47.794;13.068;2023-02-15T06:16:06;4.13;;;3.87;;
4821;SDS011;2425;47.794;13.068;2023-02-15T06:18:33;4.67;;;3.23;;
4821;SDS011;2425;47.794;13.068;2023-02-15T06:21:01;3.87;;;3.57;;
4821;SDS011;2425;47.794;13.068;2023-02-15T06:23:28;3.63;;;3.40;;
4821;SDS011;2425;47.794;13.068;2023-02-15T06:25:55;3.57;;;3.37;;
4821;SDS011;2425;47.794;13.068;2023-02-15T06:28:22;3.63;;;3.43;;
4821;SDS011;2425;47.794;13.068;2023-02-15T06:30:50;4.20;;;3.90;;
4821;SDS011;2425;47.794;13.068;2023-02-15T06:33:17;4.30;;;4.00;;
4821;SDS011;2425;47.794;13.068;2023-02-15T06:35:45;3.53;;;3.23;;
4821;SDS011;2425;47.794;13.068;2023-02-15T06:38:13;3.83;;;3.63;;
4821;SDS011;2425;47.794;13.068;2023-02-15T06:40:40;4.00;;;3.80;;
4821;SDS011;2425;47.794;13.068;2023-02-15T06:43:07;3.60;;;3.40;;
4821;SDS011;2425;47.794;13.068;2023-02-15T06:45:33;3.20;;;3.10;;
4821;SDS011;2425;47.794;13.068;2023-02-15T06:48:03;3.00;;;2.90;;
4821;SDS011;2425;47.794;13.068;2023-02-15T06:50:44;3.70;;;3.50;;
4821;SDS011;2425;47.794;13.068;2023-02-15T06:53:11;3.50;;;3.30;;
4821;SDS011;2425;47.794;13.068;2023-02-15T06:55:39;3.57;;;3.37;;
4821;SDS011;2425;47.794;13.068;2023-02-15T06:58:06;3.53;;;3.33;;
4821;SDS011;2425;47.794;13.068;2023-02-15T07:00:33;3.53;;;3.33;;
4821;SDS011;2425;47.794;13.068;2023-02-15T07:02:59;3.97;;;3.77;;
4821;SDS011;2425;47.794;13.068;2023-02-15T07:05:27;3.90;;;3.60;;
4821;SDS011;2425;47.794;13.068;2023-02-15T07:07:55;3.33;;;3.13;;
4821;SDS011;2425;47.794;13.068;2023-02-15T07:10:25;4.40;;;4.10;;
4821;SDS011;2425;47.794;13.068;2023-02-15T07:12:53;10.17;;;9.17;;
4821;SDS011;2425;47.794;13.068;2023-02-15T07:15:19;15.90;;;13.63;;
4821;SDS011;2425;47.794;13.068;2023-02-15T07:17:47;15.17;;;9.67;;
4821;SDS011;2425;47.794;13.068;2023-02-15T07:20:14;8.50;;;5.30;;
4821;SDS011;2425;47.794;13.068;2023-02-15T07:22:42;4.83;;;4.43;;
4821;SDS011;2425;47.794;13.068;2023-02-15T07:25:10;5.23;;;4.73;;
4821;SDS011;2425;47.794;13.068;2023-02-15T07:27:37;4.73;;;4.33;;
4821;SDS011;2425;47.794;13.068;2023-02-15T07:30:06;5.20;;;4.70;;
4821;SDS011;2425;47.794;13.068;2023-02-15T07:32:34;43.70;;;35.50;;
4821;SDS011;2425;47.794;13.068;2023-02-15T07:35:01;31.83;;;26.30;;
4821;SDS011;2425;47.794;13.068;2023-02-15T07:37:28;31.47;;;24.67;;
4821;SDS011;2425;47.794;13.068;2023-02-15T07:39:55;13.60;;;11.53;;
4821;SDS011;2425;47.794;13.068;2023-02-15T07:42:21;10.83;;;9.13;;
4821;SDS011;2425;47.794;13.068;2023-02-15T07:44:48;13.80;;;6.60;;
4821;SDS011;2425;47.794;13.068;2023-02-15T07:47:17;6.60;;;5.93;;
4821;SDS011;2425;47.794;13.068;2023-02-15T07:49:44;17.43;;;14.10;;
4821;SDS011;2425;47.794;13.068;2023-02-15T07:52:11;9.67;;;8.67;;
4821;SDS011;2425;47.794;13.068;2023-02-15T07:54:37;11.37;;;9.43;;
4821;SDS011;2425;47.794;13.068;2023-02-15T07:57:06;8.20;;;7.40;;
4821;SDS011;2425;47.794;13.068;2023-02-15T07:59:32;5.60;;;5.07;;
4821;SDS011;2425;47.794;13.068;2023-02-15T08:01:59;9.80;;;6.97;;
4821;SDS011;2425;47.794;13.068;2023-02-15T08:04:27;9.47;;;7.80;;
4821;SDS011;2425;47.794;13.068;2023-02-15T08:06:54;10.93;;;7.43;;
4821;SDS011;2425;47.794;13.068;2023-02-15T08:09:21;8.50;;;6.00;;
4821;SDS011;2425;47.794;13.068;2023-02-15T08:11:48;8.30;;;5.33;;
4821;SDS011;2425;47.794;13.068;2023-02-15T08:14:15;9.83;;;5.87;;
4821;SDS011;2425;47.794;13.068;2023-02-15T08:16:44;7.17;;;6.20;;
4821;SDS011;2425;47.794;13.068;2023-02-15T08:19:12;17.30;;;12.60;;
4821;SDS011;2425;47.794;13.068;2023-02-15T08:21:42;27.63;;;20.63;;
4821;SDS011;2425;47.794;13.068;2023-02-15T08:24:10;13.33;;;11.97;;
4821;SDS011;2425;47.794;13.068;2023-02-15T08:26:38;8.63;;;7.60;;
4821;SDS011;2425;47.794;13.068;2023-02-15T08:29:05;8.20;;;7.40;;
4821;SDS011;2425;47.794;13.068;2023-02-15T08:31:33;12.60;;;6.90;;
4821;SDS011;2425;47.794;13.068;2023-02-15T08:34:00;12.40;;;6.40;;
4821;SDS011;2425;47.794;13.068;2023-02-15T08:36:28;7.50;;;6.00;;
4821;SDS011;2425;47.794;13.068;2023-02-15T08:38:58;9.40;;;5.80;;
4821;SDS011;2425;47.794;13.068;2023-02-15T08:41:27;8.43;;;6.33;;
4821;SDS011;2425;47.794;13.068;2023-02-15T08:43:56;7.77;;;5.80;;
4821;SDS011;2425;47.794;13.068;2023-02-15T08:46:24;30.87;;;24.97;;
4821;SDS011;2425;47.794;13.068;2023-02-15T08:48:52;42.10;;;33.87;;
4821;SDS011;2425;47.794;13.068;2023-02-15T08:51:19;22.30;;;19.50;;
4821;SDS011;2425;47.794;13.068;2023-02-15T08:53:48;14.40;;;10.67;;
4821;SDS011;2425;47.794;13.068;2023-02-15T08:56:17;11.90;;;8.63;;
4821;SDS011;2425;47.794;13.068;2023-02-15T08:58:45;11.30;;;8.87;;
4821;SDS011;2425;47.794;13.068;2023-02-15T09:01:12;9.00;;;8.20;;
4821;SDS011;2425;47.794;13.068;2023-02-15T09:03:43;11.30;;;9.07;;
4821;SDS011;2425;47.794;13.068;2023-02-15T09:06:10;11.10;;;8.57;;
4821;SDS011;2425;47.794;13.068;2023-02-15T09:08:37;12.33;;;8.90;;
4821;SDS011;2425;47.794;13.068;2023-02-15T09:11:05;12.13;;;8.80;;
4821;SDS011;2425;47.794;13.068;2023-02-15T09:13:34;12.13;;;8.27;;
4821;SDS011;2425;47.794;13.068;2023-02-15T09:16:01;12.07;;;9.47;;
4821;SDS011;2425;47.794;13.068;2023-02-15T09:18:29;10.13;;;8.77;;
4821;SDS011;2425;47.794;13.068;2023-02-15T09:20:57;9.10;;;8.30;;
4821;SDS011;2425;47.794;13.068;2023-02-15T09:23:23;9.10;;;8.17;;
4821;SDS011;2425;47.794;13.068;2023-02-15T09:25:50;9.00;;;8.10;;
4821;SDS011;2425;47.794;13.068;2023-02-15T09:28:17;11.67;;;7.80;;
4821;SDS011;2425;47.794;13.068;2023-02-15T09:30:45;14.07;;;8.10;;
4821;SDS011;2425;47.794;13.068;2023-02-15T09:33:14;8.70;;;7.90;;
4821;SDS011;2425;47.794;13.068;2023-02-15T09:35:44;8.80;;;7.80;;
4821;SDS011;2425;47.794;13.068;2023-02-15T09:38:11;13.43;;;7.80;;
4821;SDS011;2425;47.794;13.068;2023-02-15T09:40:44;12.20;;;7.70;;
4821;SDS011;2425;47.794;13.068;2023-02-15T09:43:22;8.93;;;7.20;;
4821;SDS011;2425;47.794;13.068;2023-02-15T09:46:07;10.00;;;6.80;;
4821;SDS011;2425;47.794;13.068;2023-02-15T09:48:43;10.10;;;6.63;;
4821;SDS011;2425;47.794;13.068;2023-02-15T09:51:19;8.50;;;7.60;;
4821;SDS011;2425;47.794;13.068;2023-02-15T09:54:08;7.87;;;7.17;;
4821;SDS011;2425;47.794;13.068;2023-02-15T09:56:42;9.63;;;6.90;;
4821;SDS011;2425;47.794;13.068;2023-02-15T09:59:14;12.07;;;7.13;;
4821;SDS011;2425;47.794;13.068;2023-02-15T10:01:48;9.27;;;6.27;;
4821;SDS011;2425;47.794;13.068;2023-02-15T10:04:26;8.60;;;6.97;;
4821;SDS011;2425;47.794;13.068;2023-02-15T10:07:05;7.40;;;6.43;;
4821;SDS011;2425;47.794;13.068;2023-02-15T10:09:40;9.47;;;6.40;;
4821;SDS011;2425;47.794;13.068;2023-02-15T10:12:31;6.80;;;6.27;;
4821;SDS011;2425;47.794;13.068;2023-02-15T10:20:40;8.87;;;6.47;;
4821;SDS011;2425;47.794;13.068;2023-02-15T10:26:11;11.87;;;10.00;;
4821;SDS011;2425;47.794;13.068;2023-02-15T10:28:41;31.30;;;22.50;;
4821;SDS011;2425;47.794;13.068;2023-02-15T10:31:12;15.73;;;11.47;;
4821;SDS011;2425;47.794;13.068;2023-02-15T10:33:49;18.23;;;7.67;;
4821;SDS011;2425;47.794;13.068;2023-02-15T10:36:26;11.17;;;6.23;;
4821;SDS011;2425;47.794;13.068;2023-02-15T10:39:01;9.30;;;6.17;;
4821;SDS011;2425;47.794;13.068;2023-02-15T10:41:31;10.17;;;7.13;;
4821;SDS011;2425;47.794;13.068;2023-02-15T10:44:08;8.27;;;7.37;;
4821;SDS011;2425;47.794;13.068;2023-02-15T10:46:47;13.03;;;7.43;;
4821;SDS011;2425;47.794;13.068;2023-02-15T10:49:39;19.60;;;7.57;;
4821;SDS011;2425;47.794;13.068;2023-02-15T10:52:27;21.53;;;7.37;;
4821;SDS011;2425;47.794;13.068;2023-02-15T10:55:01;13.70;;;7.90;;
4821;SDS011;2425;47.794;13.068;2023-02-15T10:57:34;13.40;;;7.60;;
4821;SDS011;2425;47.794;13.068;2023-02-15T11:00:13;20.83;;;7.60;;
4821;SDS011;2425;47.794;13.068;2023-02-15T11:02:50;13.67;;;8.30;;
4821;SDS011;2425;47.794;13.068;2023-02-15T11:05:45;33.47;;;22.00;;
4821;SDS011;2425;47.794;13.068;2023-02-15T11:08:15;36.87;;;27.63;;
4821;SDS011;2425;47.794;13.068;2023-02-15T11:10:44;31.90;;;17.63;;
4821;SDS011;2425;47.794;13.068;2023-02-15T11:13:14;24.27;;;11.33;;
4821;SDS011;2425;47.794;13.068;2023-02-15T11:15:44;11.20;;;9.00;;
4821;SDS011;2425;47.794;13.068;2023-02-15T11:18:13;24.27;;;9.27;;
4821;SDS011;2425;47.794;13.068;2023-02-15T11:20:47;15.17;;;8.80;;
4821;SDS011;2425;47.794;13.068;2023-02-15T11:23:18;15.97;;;8.50;;
4821;SDS011;2425;47.794;13.068;2023-02-15T11:25:45;18.23;;;8.53;;
4821;SDS011;2425;47.794;13.068;2023-02-15T11:28:17;23.87;;;7.53;;
4821;SDS011;2425;47.794;13.068;2023-02-15T11:30:46;23.20;;;7.87;;
4821;SDS011;2425;47.794;13.068;2023-02-15T11:33:17;18.03;;;8.63;;
4821;SDS011;2425;47.794;13.068;2023-02-15T11:35:49;13.00;;;8.00;;
4821;SDS011;2425;47.794;13.068;2023-02-15T11:38:18;12.70;;;7.97;;
4821;SDS011;2425;47.794;13.068;2023-02-15T11:40:48;13.43;;;7.67;;
4821;SDS011;2425;47.794;13.068;2023-02-15T11:43:16;17.03;;;7.37;;
4821;SDS011;2425;47.794;13.068;2023-02-15T11:45:45;22.23;;;6.97;;
4821;SDS011;2425;47.794;13.068;2023-02-15T11:48:13;11.00;;;7.03;;
4821;SDS011;2425;47.794;13.068;2023-02-15T11:50:40;19.07;;;10.20;;
4821;SDS011;2425;47.794;13.068;2023-02-15T11:53:11;14.80;;;8.63;;
4821;SDS011;2425;47.794;13.068;2023-02-15T11:55:39;13.87;;;8.20;;
4821;SDS011;2425;47.794;13.068;2023-02-15T11:58:09;20.60;;;7.90;;
4821;SDS011;2425;47.794;13.068;2023-02-15T12:00:45;10.20;;;7.30;;
4821;SDS011;2425;47.794;13.068;2023-02-15T12:03:14;12.10;;;7.33;;
4821;SDS011;2425;47.794;13.068;2023-02-15T12:05:45;15.47;;;6.80;;
4821;SDS011;2425;47.794;13.068;2023-02-15T12:08:18;15.13;;;7.57;;
4821;SDS011;2425;47.794;13.068;2023-02-15T12:13:29;11.90;;;7.07;;
4821;SDS011;2425;47.794;13.068;2023-02-15T12:15:57;13.87;;;6.40;;
4821;SDS011;2425;47.794;13.068;2023-02-15T12:18:35;9.40;;;6.57;;
4821;SDS011;2425;47.794;13.068;2023-02-15T12:21:05;16.27;;;6.80;;
4821;SDS011;2425;47.794;13.068;2023-02-15T12:23:34;13.20;;;7.50;;
4821;SDS011;2425;47.794;13.068;2023-02-15T12:26:07;13.83;;;7.70;;
4821;SDS011;2425;47.794;13.068;2023-02-15T12:28:35;17.63;;;11.50;;
4821;SDS011;2425;47.794;13.068;2023-02-15T12:31:03;9.47;;;7.70;;
4821;SDS011;2425;47.794;13.068;2023-02-15T12:33:34;16.23;;;7.63;;
4821;SDS011;2425;47.794;13.068;2023-02-15T12:36:03;10.70;;;7.90;;
4821;SDS011;2425;47.794;13.068;2023-02-15T12:38:37;12.30;;;6.60;;
4821;SDS011;2425;47.794;13.068;2023-02-15T12:41:04;44.03;;;17.90;;
4821;SDS011;2425;47.794;13.068;2023-02-15T12:43:42;67.70;;;32.43;;
4821;SDS011;2425;47.794;13.068;2023-02-15T12:46:14;140.80;;;59.63;;
4821;SDS011;2425;47.794;13.068;2023-02-15T12:48:46;147.77;;;73.57;;
4821;SDS011;2425;47.794;13.068;2023-02-15T12:51:14;195.73;;;94.77;;
4821;SDS011;2425;47.794;13.068;2023-02-15T12:53:43;202.47;;;92.50;;
4821;SDS011;2425;47.794;13.068;2023-02-15T12:56:10;181.83;;;88.17;;
4821;SDS011;2425;47.794;13.068;2023-02-15T12:58:37;221.53;;;97.70;;
4821;SDS011;2425;47.794;13.068;2023-02-15T13:01:11;209.53;;;93.97;;
4821;SDS011;2425;47.794;13.068;2023-02-15T13:03:46;122.87;;;57.10;;
4821;SDS011;2425;47.794;13.068;2023-02-15T13:06:21;114.23;;;53.67;;
4821;SDS011;2425;47.794;13.068;2023-02-15T13:08:50;116.60;;;55.33;;
4821;SDS011;2425;47.794;13.068;2023-02-15T13:11:19;118.57;;;58.30;;
4821;SDS011;2425;47.794;13.068;2023-02-15T13:13:50;123.50;;;57.27;;
4821;SDS011;2425;47.794;13.068;2023-02-15T13:16:19;86.73;;;46.40;;
4821;SDS011;2425;47.794;13.068;2023-02-15T13:18:53;94.77;;;51.43;;
4821;SDS011;2425;47.794;13.068;2023-02-15T13:21:21;92.77;;;47.60;;
4821;SDS011;2425;47.794;13.068;2023-02-15T13:23:53;85.30;;;46.73;;
4821;SDS011;2425;47.794;13.068;2023-02-15T13:26:23;64.03;;;31.90;;
4821;SDS011;2425;47.794;13.068;2023-02-15T13:28:54;33.17;;;21.63;;
4821;SDS011;2425;47.794;13.068;2023-02-15T13:31:23;46.37;;;21.70;;
4821;SDS011;2425;47.794;13.068;2023-02-15T13:33:52;40.63;;;22.73;;
4821;SDS011;2425;47.794;13.068;2023-02-15T13:36:23;43.33;;;24.67;;
4821;SDS011;2425;47.794;13.068;2023-02-15T13:38:57;40.90;;;22.60;;
4821;SDS011;2425;47.794;13.068;2023-02-15T13:41:30;40.70;;;24.00;;
4821;SDS011;2425;47.794;13.068;2023-02-15T13:44:01;42.30;;;24.10;;
4821;SDS011;2425;47.794;13.068;2023-02-15T13:46:46;34.40;;;20.50;;
4821;SDS011;2425;47.794;13.068;2023-02-15T13:49:20;35.73;;;21.60;;
4821;SDS011;2425;47.794;13.068;2023-02-15T13:51:57;39.60;;;21.20;;
4821;SDS011;2425;47.794;13.068;2023-02-15T13:54:35;33.37;;;20.67;;
4821;SDS011;2425;47.794;13.068;2023-02-15T13:57:15;30.60;;;19.90;;
4821;SDS011;2425;47.794;13.068;2023-02-15T14:00:00;28.20;;;18.70;;
4821;SDS011;2425;47.794;13.068;2023-02-15T14:02:36;36.97;;;19.87;;
4821;SDS011;2425;47.794;13.068;2023-02-15T14:05:23;42.73;;;19.67;;
4821;SDS011;2425;47.794;13.068;2023-02-15T14:08:00;29.20;;;17.50;;
4821;SDS011;2425;47.794;13.068;2023-02-15T14:10:45;27.33;;;17.03;;
4821;SDS011;2425;47.794;13.068;2023-02-15T14:13:38;28.93;;;17.53;;
4821;SDS011;2425;47.794;13.068;2023-02-15T14:16:26;28.70;;;17.47;;
4821;SDS011;2425;47.794;13.068;2023-02-15T14:18:59;26.70;;;16.30;;
4821;SDS011;2425;47.794;13.068;2023-02-15T14:21:31;27.10;;;16.20;;
4821;SDS011;2425;47.794;13.068;2023-02-15T14:24:06;36.33;;;20.10;;
4821;SDS011;2425;47.794;13.068;2023-02-15T14:26:45;29.33;;;15.87;;
4821;SDS011;2425;47.794;13.068;2023-02-15T14:29:16;30.10;;;16.30;;
4821;SDS011;2425;47.794;13.068;2023-02-15T14:31:50;24.13;;;15.77;;
4821;SDS011;2425;47.794;13.068;2023-02-15T14:34:21;26.50;;;15.50;;
4821;SDS011;2425;47.794;13.068;2023-02-15T14:36:49;25.97;;;15.00;;
4821;SDS011;2425;47.794;13.068;2023-02-15T14:39:19;27.33;;;16.20;;
4821;SDS011;2425;47.794;13.068;2023-02-15T14:42:11;29.73;;;14.77;;
4821;SDS011;2425;47.794;13.068;2023-02-15T14:44:42;21.83;;;15.10;;
4821;SDS011;2425;47.794;13.068;2023-02-15T14:47:13;21.30;;;14.50;;
4821;SDS011;2425;47.794;13.068;2023-02-15T14:49:44;21.40;;;12.93;;
4821;SDS011;2425;47.794;13.068;2023-02-15T14:52:11;25.27;;;13.53;;
4821;SDS011;2425;47.794;13.068;2023-02-15T14:54:57;24.60;;;13.30;;
4821;SDS011;2425;47.794;13.068;2023-02-15T14:57:27;18.60;;;13.60;;
4821;SDS011;2425;47.794;13.068;2023-02-15T14:59:56;20.10;;;14.13;;
4821;SDS011;2425;47.794;13.068;2023-02-15T15:02:24;22.33;;;13.10;;
4821;SDS011;2425;47.794;13.068;2023-02-15T15:04:55;20.50;;;12.70;;
4821;SDS011;2425;47.794;13.068;2023-02-15T15:07:25;23.20;;;12.53;;
4821;SDS011;2425;47.794;13.068;2023-02-15T15:10:00;26.17;;;12.37;;
4821;SDS011;2425;47.794;13.068;2023-02-15T15:12:42;21.90;;;12.50;;
4821;SDS011;2425;47.794;13.068;2023-02-15T15:15:13;18.93;;;12.80;;
4821;SDS011;2425;47.794;13.068;2023-02-15T15:17:54;21.87;;;11.80;;
4821;SDS011;2425;47.794;13.068;2023-02-15T15:26:27;32.43;;;12.70;;
4821;SDS011;2425;47.794;13.068;2023-02-15T15:29:00;19.63;;;11.50;;
4821;SDS011;2425;47.794;13.068;2023-02-15T15:31:31;21.60;;;11.50;;